PWSweather.com
Personal Weather Stations
Station Observations
KTXPLANO60
Highlands Of Russell Park, Plano, TX 75025

Highlands Of Russell ParkPlano, TX 75025

Lat: 33.10431671, Lon: -96.75176239

Elevation: 761

Station Type: Davis Wireless VP2 Plus

http://www.planoweather.com

Latest ConditionsUpdated 11:50:01 PM CST Wednesday, Dec 7, 2016
Currently Today's Max Today's Min Today's Average
Temperature 38.6°F3.7°C 51.5°F10.8°C 37.3°F2.9°C 44.3°F6.8°C
Dew Point 33.3°F0.7°C 43.6°F6.4°C 33.3°F0.7°C 38.4°F3.6°C
Winds 8.1 mph NE13.0 kmh NE 11.5 mph NE18.5 kmh NE - 2.7 mph 4.3 kmh
Wind Gusts 17.3 mph27.8 kmh 19.6 mph31.5 kmh - -
Humidity 81% 88% 69% 80%
Pressure 30.35 in1027.8 mb 30.35 in1027.8 mb 30.02 in1016.6 mb -
Hour Temp Dew Point Humidity Winds Wind Gusts Pressure Precip Precip Rate Daily Precip Total
11:50 PM 38.6°F3.7°C 33.3°F0.7°C 81% 8.1 mph NE13.0 kmh NE 17.3 mph27.8 kmh 30.35 in1027.8 mb - 0.00 in0.0 mm 0.00 in0.0 mm
11:40 PM 38.9°F3.8°C 34.2°F1.2°C 83% 8.1 mph NE13.0 kmh NE 12.7 mph20.4 kmh 30.34 in1027.4 mb - 0.00 in0.0 mm 0.00 in0.0 mm
11:30 PM 39.0°F3.9°C 34.3°F1.3°C 83% 6.9 mph NE11.1 kmh NE 13.8 mph22.2 kmh 30.34 in1027.4 mb - 0.00 in0.0 mm 0.00 in0.0 mm
11:20 PM 39.1°F3.9°C 34.4°F1.3°C 83% 5.8 mph NNE9.3 kmh NNE 10.4 mph16.7 kmh 30.34 in1027.4 mb - 0.00 in0.0 mm 0.00 in0.0 mm
11:10 PM 39.1°F3.9°C 34.4°F1.3°C 83% 6.9 mph NNE11.1 kmh NNE 13.8 mph22.2 kmh 30.34 in1027.4 mb - 0.00 in0.0 mm 0.00 in0.0 mm
11:00 PM 39.3°F4.1°C 34.6°F1.4°C 83% 6.9 mph NE11.1 kmh NE 18.4 mph29.6 kmh 30.34 in1027.4 mb - 0.00 in0.0 mm 0.00 in0.0 mm
10:50 PM 39.5°F4.2°C 35.1°F1.7°C 84% 8.1 mph NNE13.0 kmh NNE 12.7 mph20.4 kmh 30.33 in1027.1 mb - 0.00 in0.0 mm 0.00 in0.0 mm
10:40 PM 39.6°F4.2°C 35.2°F1.8°C 84% 6.9 mph N11.1 kmh N 11.5 mph18.5 kmh 30.33 in1027.1 mb - 0.00 in0.0 mm 0.00 in0.0 mm
10:30 PM 39.7°F4.3°C 35.6°F2.0°C 85% 6.9 mph N11.1 kmh N 12.7 mph20.4 kmh 30.32 in1026.8 mb - 0.00 in0.0 mm 0.00 in0.0 mm
10:20 PM 39.8°F4.3°C 35.7°F2.1°C 85% 10.4 mph NE16.7 kmh NE 13.8 mph22.2 kmh 30.31 in1026.4 mb - 0.00 in0.0 mm 0.00 in0.0 mm
10:10 PM 40.0°F4.4°C 35.6°F2.0°C 84% 10.4 mph NNE16.7 kmh NNE 19.6 mph31.5 kmh 30.30 in1026.1 mb - 0.00 in0.0 mm 0.00 in0.0 mm
10:00 PM 40.5°F4.7°C 36.0°F2.2°C 84% 8.1 mph NE13.0 kmh NE 11.5 mph18.5 kmh 30.29 in1025.7 mb - 0.00 in0.0 mm 0.00 in0.0 mm
09:50 PM 41.1°F5.1°C 36.6°F2.6°C 84% 8.1 mph N13.0 kmh N 13.8 mph22.2 kmh 30.29 in1025.7 mb - 0.00 in0.0 mm 0.00 in0.0 mm
09:40 PM 41.5°F5.3°C 37.6°F3.1°C 86% 4.6 mph N7.4 kmh N 10.4 mph16.7 kmh 30.29 in1025.7 mb - 0.00 in0.0 mm 0.00 in0.0 mm
09:30 PM 41.6°F5.3°C 37.7°F3.2°C 86% 8.1 mph NNE13.0 kmh NNE 11.5 mph18.5 kmh 30.29 in1025.7 mb - 0.00 in0.0 mm 0.00 in0.0 mm
09:20 PM 41.9°F5.5°C 38.1°F3.4°C 86% 8.1 mph NNE13.0 kmh NNE 11.5 mph18.5 kmh 30.28 in1025.4 mb - 0.00 in0.0 mm 0.00 in0.0 mm
09:10 PM 42.5°F5.8°C 38.6°F3.7°C 86% 6.9 mph NNE11.1 kmh NNE 11.5 mph18.5 kmh 30.27 in1025.1 mb - 0.00 in0.0 mm 0.00 in0.0 mm
09:00 PM 43.0°F6.1°C 38.8°F3.8°C 85% 6.9 mph NE11.1 kmh NE 11.5 mph18.5 kmh 30.26 in1024.7 mb - 0.00 in0.0 mm 0.00 in0.0 mm
08:50 PM 43.5°F6.4°C 39.3°F4.1°C 85% 8.1 mph NNE13.0 kmh NNE 11.5 mph18.5 kmh 30.25 in1024.4 mb - 0.00 in0.0 mm 0.00 in0.0 mm
08:40 PM 43.9°F6.6°C 39.6°F4.2°C 85% 9.2 mph NNE14.8 kmh NNE 17.3 mph27.8 kmh 30.25 in1024.4 mb - 0.00 in0.0 mm 0.00 in0.0 mm
08:30 PM 44.1°F6.7°C 39.9°F4.4°C 85% 6.9 mph NNE11.1 kmh NNE 10.4 mph16.7 kmh 30.25 in1024.4 mb - 0.00 in0.0 mm 0.00 in0.0 mm
08:20 PM 44.7°F7.1°C 40.5°F4.7°C 85% 11.5 mph NE18.5 kmh NE 19.6 mph31.5 kmh 30.23 in1023.7 mb - 0.00 in0.0 mm 0.00 in0.0 mm
08:10 PM 45.1°F7.3°C 40.9°F4.9°C 85% 8.1 mph NNE13.0 kmh NNE 11.5 mph18.5 kmh 30.23 in1023.7 mb - 0.00 in0.0 mm 0.00 in0.0 mm
08:00 PM 45.6°F7.6°C 41.0°F5.0°C 84% 4.6 mph NNE7.4 kmh NNE 10.4 mph16.7 kmh 30.23 in1023.7 mb - 0.00 in0.0 mm 0.00 in0.0 mm
07:50 PM 46.0°F7.8°C 41.8°F5.4°C 85% 6.9 mph NNE11.1 kmh NNE 15.0 mph24.1 kmh 30.21 in1023.0 mb - 0.00 in0.0 mm 0.00 in0.0 mm
07:40 PM 46.3°F7.9°C 41.7°F5.4°C 84% 8.1 mph NE13.0 kmh NE 11.5 mph18.5 kmh 30.21 in1023.0 mb - 0.00 in0.0 mm 0.00 in0.0 mm
07:30 PM 46.6°F8.1°C 41.7°F5.4°C 83% 6.9 mph NNE11.1 kmh NNE 10.4 mph16.7 kmh 30.20 in1022.7 mb - 0.00 in0.0 mm 0.00 in0.0 mm
07:20 PM 47.2°F8.4°C 42.3°F5.7°C 83% 6.9 mph NE11.1 kmh NE 13.8 mph22.2 kmh 30.19 in1022.4 mb - 0.00 in0.0 mm 0.00 in0.0 mm
07:10 PM 47.5°F8.6°C 42.6°F5.9°C 83% 3.5 mph NNE5.6 kmh NNE 5.8 mph9.3 kmh 30.19 in1022.4 mb - 0.00 in0.0 mm 0.00 in0.0 mm
07:00 PM 47.6°F8.7°C 42.7°F5.9°C 83% 6.9 mph NE11.1 kmh NE 10.4 mph16.7 kmh 30.18 in1022.0 mb - 0.00 in0.0 mm 0.00 in0.0 mm
06:50 PM 47.8°F8.8°C 42.9°F6.1°C 83% 4.6 mph NNE7.4 kmh NNE 8.1 mph13.0 kmh 30.18 in1022.0 mb - 0.00 in0.0 mm 0.00 in0.0 mm
06:40 PM 47.9°F8.8°C 42.7°F5.9°C 82% 6.9 mph NE11.1 kmh NE 10.4 mph16.7 kmh 30.17 in1021.7 mb - 0.00 in0.0 mm 0.00 in0.0 mm
06:30 PM 48.0°F8.9°C 42.8°F6.0°C 82% 4.6 mph NE7.4 kmh NE 4.6 mph7.4 kmh 30.16 in1021.3 mb - 0.00 in0.0 mm 0.00 in0.0 mm
06:20 PM 48.2°F9.0°C 43.6°F6.4°C 84% 4.6 mph NE7.4 kmh NE 5.8 mph9.3 kmh 30.16 in1021.3 mb - 0.00 in0.0 mm 0.00 in0.0 mm
06:10 PM 48.4°F9.1°C 42.5°F5.8°C 80% 3.5 mph NE5.6 kmh NE 6.9 mph11.1 kmh 30.14 in1020.7 mb - 0.00 in0.0 mm 0.00 in0.0 mm
06:00 PM 48.5°F9.2°C 42.6°F5.9°C 80% 3.5 mph NE5.6 kmh NE 5.8 mph9.3 kmh 30.14 in1020.7 mb - 0.00 in0.0 mm 0.00 in0.0 mm
05:50 PM 48.7°F9.3°C 42.5°F5.8°C 79% 3.5 mph NE5.6 kmh NE 8.1 mph13.0 kmh 30.13 in1020.3 mb - 0.00 in0.0 mm 0.00 in0.0 mm
05:40 PM 49.2°F9.6°C 42.3°F5.7°C 77% 5.8 mph NE9.3 kmh NE 11.5 mph18.5 kmh 30.13 in1020.3 mb - 0.00 in0.0 mm 0.00 in0.0 mm
05:30 PM 49.6°F9.8°C 41.0°F5.0°C 72% 5.8 mph NNE9.3 kmh NNE 5.8 mph9.3 kmh 30.12 in1020.0 mb - 0.00 in0.0 mm 0.00 in0.0 mm
05:20 PM 49.7°F9.8°C 41.0°F5.0°C 72% 2.3 mph NE3.7 kmh NE 3.5 mph5.6 kmh 30.11 in1019.6 mb - 0.00 in0.0 mm 0.00 in0.0 mm
05:10 PM 49.7°F9.8°C 41.0°F5.0°C 72% 4.6 mph N7.4 kmh N 5.8 mph9.3 kmh 30.11 in1019.6 mb - 0.00 in0.0 mm 0.00 in0.0 mm
05:00 PM 49.7°F9.8°C 40.7°F4.8°C 71% 4.6 mph N7.4 kmh N 6.9 mph11.1 kmh 30.11 in1019.6 mb - 0.00 in0.0 mm 0.00 in0.0 mm
04:50 PM 49.9°F9.9°C 40.9°F4.9°C 71% 4.6 mph NNE7.4 kmh NNE 6.9 mph11.1 kmh 30.10 in1019.3 mb - 0.00 in0.0 mm 0.00 in0.0 mm
04:40 PM 50.0°F10.0°C 42.1°F5.6°C 74% 4.6 mph NNE7.4 kmh NNE 6.9 mph11.1 kmh 30.10 in1019.3 mb - 0.00 in0.0 mm 0.00 in0.0 mm
04:30 PM 50.1°F10.1°C 42.1°F5.6°C 74% 3.5 mph N5.6 kmh N 5.8 mph9.3 kmh 30.09 in1019.0 mb - 0.00 in0.0 mm 0.00 in0.0 mm
04:20 PM 50.3°F10.2°C 42.3°F5.7°C 74% 3.5 mph N5.6 kmh N 5.8 mph9.3 kmh 30.09 in1019.0 mb - 0.00 in0.0 mm 0.00 in0.0 mm
04:10 PM 50.4°F10.2°C 42.1°F5.6°C 73% 4.6 mph N7.4 kmh N 8.1 mph13.0 kmh 30.09 in1019.0 mb - 0.00 in0.0 mm 0.00 in0.0 mm
04:00 PM 50.5°F10.3°C 42.2°F5.7°C 73% 3.5 mph N5.6 kmh N 5.8 mph9.3 kmh 30.08 in1018.6 mb - 0.00 in0.0 mm 0.00 in0.0 mm
03:50 PM 50.5°F10.3°C 41.8°F5.4°C 72% 3.5 mph N5.6 kmh N 5.8 mph9.3 kmh 30.08 in1018.6 mb - 0.00 in0.0 mm 0.00 in0.0 mm
03:40 PM 50.6°F10.3°C 41.5°F5.3°C 71% 2.3 mph N3.7 kmh N 4.6 mph7.4 kmh 30.07 in1018.3 mb - 0.00 in0.0 mm 0.00 in0.0 mm
03:30 PM 50.6°F10.3°C 40.8°F4.9°C 69% 2.3 mph N3.7 kmh N 3.5 mph5.6 kmh 30.08 in1018.6 mb - 0.00 in0.0 mm 0.00 in0.0 mm
03:20 PM 50.6°F10.3°C 41.2°F5.1°C 70% 1.2 mph NNW1.9 kmh NNW 3.5 mph5.6 kmh 30.08 in1018.6 mb - 0.00 in0.0 mm 0.00 in0.0 mm
03:10 PM 50.7°F10.4°C 42.0°F5.6°C 72% 2.3 mph NW3.7 kmh NW 4.6 mph7.4 kmh 30.07 in1018.3 mb - 0.00 in0.0 mm 0.00 in0.0 mm
03:00 PM 50.8°F10.4°C 42.5°F5.8°C 73% 1.2 mph N1.9 kmh N 3.5 mph5.6 kmh 30.07 in1018.3 mb - 0.00 in0.0 mm 0.00 in0.0 mm
02:50 PM 50.8°F10.4°C 42.5°F5.8°C 73% 1.2 mph WNW1.9 kmh WNW 3.5 mph5.6 kmh 30.07 in1018.3 mb - 0.00 in0.0 mm 0.00 in0.0 mm
02:40 PM 50.8°F10.4°C 42.4°F5.8°C 73% Calm Calm -- 30.06 in1017.9 mb - 0.00 in0.0 mm 0.00 in0.0 mm
02:30 PM 50.8°F10.4°C 42.5°F5.8°C 73% Calm Calm -- 30.06 in1017.9 mb - 0.00 in0.0 mm 0.00 in0.0 mm
02:20 PM 50.8°F10.4°C 42.5°F5.8°C 73% 2.3 mph NNW3.7 kmh NNW 3.5 mph5.6 kmh 30.07 in1018.3 mb - 0.00 in0.0 mm 0.00 in0.0 mm
02:10 PM 50.8°F10.4°C 42.5°F5.8°C 73% 1.2 mph N1.9 kmh N 3.5 mph5.6 kmh 30.06 in1017.9 mb - 0.00 in0.0 mm 0.00 in0.0 mm
02:00 PM 50.8°F10.4°C 42.5°F5.8°C 73% 2.3 mph NW3.7 kmh NW 3.5 mph5.6 kmh 30.06 in1017.9 mb - 0.00 in0.0 mm 0.00 in0.0 mm
01:50 PM 51.0°F10.6°C 42.6°F5.9°C 73% 1.2 mph N1.9 kmh N 3.5 mph5.6 kmh 30.06 in1017.9 mb - 0.00 in0.0 mm 0.00 in0.0 mm
01:40 PM 51.0°F10.6°C 42.6°F5.9°C 73% 1.2 mph WNW1.9 kmh WNW 3.5 mph5.6 kmh 30.06 in1017.9 mb - 0.00 in0.0 mm 0.00 in0.0 mm
01:30 PM 51.2°F10.7°C 42.5°F5.8°C 72% 2.3 mph NW3.7 kmh NW 3.5 mph5.6 kmh 30.06 in1017.9 mb - 0.00 in0.0 mm 0.00 in0.0 mm
01:20 PM 51.3°F10.7°C 42.6°F5.9°C 72% 1.2 mph WNW1.9 kmh WNW 3.5 mph5.6 kmh 30.06 in1017.9 mb - 0.00 in0.0 mm 0.00 in0.0 mm
01:10 PM 51.2°F10.7°C 42.1°F5.6°C 71% Calm Calm -- 30.06 in1017.9 mb - 0.00 in0.0 mm 0.00 in0.0 mm
01:00 PM 51.2°F10.7°C 42.5°F5.8°C 72% 1.2 mph W1.9 kmh W 2.3 mph3.7 kmh 30.06 in1017.9 mb - 0.00 in0.0 mm 0.00 in0.0 mm
12:50 PM 51.0°F10.6°C 42.3°F5.7°C 72% Calm Calm -- 30.06 in1017.9 mb - 0.00 in0.0 mm 0.00 in0.0 mm
12:40 PM 51.2°F10.7°C 42.1°F5.6°C 71% Calm Calm -- 30.06 in1017.9 mb - 0.00 in0.0 mm 0.00 in0.0 mm
12:30 PM 51.5°F10.8°C 42.0°F5.6°C 70% Calm Calm 2.3 mph3.7 kmh 30.06 in1017.9 mb - 0.00 in0.0 mm 0.00 in0.0 mm
12:20 PM 51.5°F10.8°C 42.4°F5.8°C 71% Calm Calm 1.2 mph1.9 kmh 30.07 in1018.3 mb - 0.00 in0.0 mm 0.00 in0.0 mm
12:10 PM 51.3°F10.7°C 42.6°F5.9°C 72% Calm Calm -- 30.07 in1018.3 mb - 0.00 in0.0 mm 0.00 in0.0 mm
12:00 PM 50.8°F10.4°C 42.5°F5.8°C 73% Calm Calm 1.2 mph1.9 kmh 30.08 in1018.6 mb - 0.00 in0.0 mm 0.00 in0.0 mm
11:50 AM 50.1°F10.1°C 42.2°F5.7°C 74% Calm Calm 1.2 mph1.9 kmh 30.09 in1019.0 mb - 0.00 in0.0 mm 0.00 in0.0 mm
11:40 AM 49.6°F9.8°C 41.6°F5.3°C 74% Calm Calm -- 30.09 in1019.0 mb - 0.00 in0.0 mm 0.00 in0.0 mm
11:30 AM 49.3°F9.6°C 41.8°F5.4°C 75% Calm Calm -- 30.09 in1019.0 mb - 0.00 in0.0 mm 0.00 in0.0 mm
11:20 AM 49.1°F9.5°C 41.5°F5.3°C 75% Calm Calm 1.2 mph1.9 kmh 30.09 in1019.0 mb - 0.00 in0.0 mm 0.00 in0.0 mm
11:10 AM 49.2°F9.6°C 41.6°F5.3°C 75% Calm Calm -- 30.09 in1019.0 mb - 0.00 in0.0 mm 0.00 in0.0 mm
11:00 AM 48.9°F9.4°C 41.7°F5.4°C 76% Calm Calm 1.2 mph1.9 kmh 30.09 in1019.0 mb - 0.00 in0.0 mm 0.00 in0.0 mm
10:50 AM 48.5°F9.2°C 41.3°F5.2°C 76% Calm Calm -- 30.09 in1019.0 mb - 0.00 in0.0 mm 0.00 in0.0 mm
10:40 AM 48.1°F8.9°C 40.9°F4.9°C 76% Calm Calm -- 30.10 in1019.3 mb - 0.00 in0.0 mm 0.00 in0.0 mm
10:30 AM 47.8°F8.8°C 41.3°F5.2°C 78% Calm Calm 1.2 mph1.9 kmh 30.09 in1019.0 mb - 0.00 in0.0 mm 0.00 in0.0 mm
10:20 AM 47.2°F8.4°C 40.7°F4.8°C 78% Calm Calm -- 30.09 in1019.0 mb - 0.00 in0.0 mm 0.00 in0.0 mm
10:10 AM 46.4°F8.0°C 40.6°F4.8°C 80% Calm Calm 1.2 mph1.9 kmh 30.09 in1019.0 mb - 0.00 in0.0 mm 0.00 in0.0 mm
10:00 AM 45.6°F7.6°C 40.1°F4.5°C 81% Calm Calm -- 30.09 in1019.0 mb - 0.00 in0.0 mm 0.00 in0.0 mm
09:50 AM 45.0°F7.2°C 39.5°F4.2°C 81% Calm Calm -- 30.09 in1019.0 mb - 0.00 in0.0 mm 0.00 in0.0 mm
09:40 AM 44.6°F7.0°C 39.4°F4.1°C 82% Calm Calm -- 30.09 in1019.0 mb - 0.00 in0.0 mm 0.00 in0.0 mm
09:30 AM 44.3°F6.8°C 39.2°F4.0°C 82% Calm Calm -- 30.09 in1019.0 mb - 0.00 in0.0 mm 0.00 in0.0 mm
09:20 AM 44.1°F6.7°C 38.9°F3.8°C 82% 1.2 mph SE1.9 kmh SE 2.3 mph3.7 kmh 30.09 in1019.0 mb - 0.00 in0.0 mm 0.00 in0.0 mm
08:50 AM 42.0°F5.6°C 37.8°F3.2°C 85% Calm Calm -- 30.07 in1018.3 mb - 0.00 in0.0 mm 0.00 in0.0 mm
08:40 AM 41.1°F5.1°C 37.3°F2.9°C 86% Calm Calm -- 30.07 in1018.3 mb - 0.00 in0.0 mm 0.00 in0.0 mm
08:30 AM 40.3°F4.6°C 36.4°F2.4°C 86% Calm Calm -- 30.07 in1018.3 mb - 0.00 in0.0 mm 0.00 in0.0 mm
08:20 AM 39.6°F4.2°C 36.0°F2.2°C 87% Calm Calm -- 30.07 in1018.3 mb - 0.00 in0.0 mm 0.00 in0.0 mm
08:10 AM 39.2°F4.0°C 35.7°F2.1°C 87% Calm Calm -- 30.07 in1018.3 mb - 0.00 in0.0 mm 0.00 in0.0 mm
08:00 AM 38.9°F3.8°C 35.4°F1.9°C 87% Calm Calm -- 30.07 in1018.3 mb - 0.00 in0.0 mm 0.00 in0.0 mm
07:50 AM 38.7°F3.7°C 35.2°F1.8°C 87% Calm Calm -- 30.05 in1017.6 mb - 0.00 in0.0 mm 0.00 in0.0 mm
07:40 AM 38.3°F3.5°C 34.8°F1.6°C 87% Calm Calm 1.2 mph1.9 kmh 30.05 in1017.6 mb - 0.00 in0.0 mm 0.00 in0.0 mm
07:30 AM 38.1°F3.4°C 34.6°F1.4°C 87% Calm Calm -- 30.05 in1017.6 mb - 0.00 in0.0 mm 0.00 in0.0 mm
07:20 AM 38.0°F3.3°C 34.5°F1.4°C 87% Calm Calm -- 30.05 in1017.6 mb - 0.00 in0.0 mm 0.00 in0.0 mm
07:10 AM 38.0°F3.3°C 34.5°F1.4°C 87% Calm Calm -- 30.04 in1017.3 mb - 0.00 in0.0 mm 0.00 in0.0 mm
07:00 AM 37.9°F3.3°C 34.7°F1.5°C 88% Calm Calm 1.2 mph1.9 kmh 30.04 in1017.3 mb - 0.00 in0.0 mm 0.00 in0.0 mm
06:50 AM 37.8°F3.2°C 34.6°F1.4°C 88% Calm Calm 1.2 mph1.9 kmh 30.05 in1017.6 mb - 0.00 in0.0 mm 0.00 in0.0 mm
06:40 AM 37.8°F3.2°C 34.2°F1.2°C 87% Calm Calm 1.2 mph1.9 kmh 30.04 in1017.3 mb - 0.00 in0.0 mm 0.00 in0.0 mm
06:30 AM 37.8°F3.2°C 34.3°F1.3°C 87% Calm Calm 1.2 mph1.9 kmh 30.03 in1016.9 mb - 0.00 in0.0 mm 0.00 in0.0 mm
06:20 AM 37.9°F3.3°C 34.4°F1.3°C 87% Calm Calm -- 30.04 in1017.3 mb - 0.00 in0.0 mm 0.00 in0.0 mm
06:10 AM 38.0°F3.3°C 34.5°F1.4°C 87% Calm Calm -- 30.04 in1017.3 mb - 0.00 in0.0 mm 0.00 in0.0 mm
06:00 AM 37.9°F3.3°C 34.4°F1.3°C 87% 1.2 mph ENE1.9 kmh ENE 3.5 mph5.6 kmh 30.03 in1016.9 mb - 0.00 in0.0 mm 0.00 in0.0 mm
05:50 AM 38.0°F3.3°C 34.5°F1.4°C 87% Calm Calm -- 30.03 in1016.9 mb - 0.00 in0.0 mm 0.00 in0.0 mm
05:40 AM 38.0°F3.3°C 34.5°F1.4°C 87% Calm Calm 1.2 mph1.9 kmh 30.03 in1016.9 mb - 0.00 in0.0 mm 0.00 in0.0 mm
05:30 AM 38.0°F3.3°C 34.5°F1.4°C 87% 1.2 mph ENE1.9 kmh ENE 3.5 mph5.6 kmh 30.03 in1016.9 mb - 0.00 in0.0 mm 0.00 in0.0 mm
05:20 AM 38.0°F3.3°C 34.5°F1.4°C 87% 3.5 mph ENE5.6 kmh ENE 3.5 mph5.6 kmh 30.03 in1016.9 mb - 0.00 in0.0 mm 0.00 in0.0 mm
05:10 AM 38.1°F3.4°C 34.3°F1.3°C 86% 2.3 mph ENE3.7 kmh ENE 3.5 mph5.6 kmh 30.02 in1016.6 mb - 0.00 in0.0 mm 0.00 in0.0 mm
05:00 AM 38.1°F3.4°C 34.5°F1.4°C 87% 2.3 mph E3.7 kmh E 3.5 mph5.6 kmh 30.02 in1016.6 mb - 0.00 in0.0 mm 0.00 in0.0 mm
04:50 AM 37.9°F3.3°C 34.4°F1.3°C 87% 2.3 mph E3.7 kmh E 3.5 mph5.6 kmh 30.02 in1016.6 mb - 0.00 in0.0 mm 0.00 in0.0 mm
04:40 AM 37.6°F3.1°C 34.1°F1.2°C 87% 2.3 mph E3.7 kmh E 3.5 mph5.6 kmh 30.02 in1016.6 mb - 0.00 in0.0 mm 0.00 in0.0 mm
04:30 AM 37.3°F2.9°C 33.8°F1.0°C 87% 2.3 mph E3.7 kmh E 3.5 mph5.6 kmh 30.03 in1016.9 mb - 0.00 in0.0 mm 0.00 in0.0 mm
04:20 AM 37.3°F2.9°C 33.5°F0.8°C 86% 1.2 mph E1.9 kmh E 3.5 mph5.6 kmh 30.03 in1016.9 mb - 0.00 in0.0 mm 0.00 in0.0 mm
04:10 AM 37.6°F3.1°C 33.8°F1.0°C 86% Calm Calm -- 30.04 in1017.3 mb - 0.00 in0.0 mm 0.00 in0.0 mm
04:00 AM 37.9°F3.3°C 33.8°F1.0°C 85% Calm Calm -- 30.03 in1016.9 mb - 0.00 in0.0 mm 0.00 in0.0 mm
03:50 AM 38.2°F3.4°C 34.1°F1.2°C 85% Calm Calm -- 30.03 in1016.9 mb - 0.00 in0.0 mm 0.00 in0.0 mm
03:40 AM 38.6°F3.7°C 34.2°F1.2°C 84% Calm Calm -- 30.04 in1017.3 mb - 0.00 in0.0 mm 0.00 in0.0 mm
03:30 AM 38.9°F3.8°C 34.2°F1.2°C 83% Calm Calm -- 30.04 in1017.3 mb - 0.00 in0.0 mm 0.00 in0.0 mm
03:20 AM 39.3°F4.1°C 34.6°F1.4°C 83% Calm Calm -- 30.04 in1017.3 mb - 0.00 in0.0 mm 0.00 in0.0 mm
03:10 AM 39.7°F4.3°C 34.6°F1.4°C 82% Calm Calm 1.2 mph1.9 kmh 30.04 in1017.3 mb - 0.00 in0.0 mm 0.00 in0.0 mm
03:00 AM 40.0°F4.4°C 34.7°F1.5°C 81% Calm Calm 1.2 mph1.9 kmh 30.04 in1017.3 mb - 0.00 in0.0 mm 0.00 in0.0 mm
02:50 AM 40.4°F4.7°C 35.0°F1.7°C 81% 1.2 mph E1.9 kmh E 1.2 mph1.9 kmh 30.03 in1016.9 mb - 0.00 in0.0 mm 0.00 in0.0 mm
02:40 AM 40.6°F4.8°C 34.9°F1.6°C 80% 1.2 mph E1.9 kmh E 2.3 mph3.7 kmh 30.03 in1016.9 mb - 0.00 in0.0 mm 0.00 in0.0 mm
02:30 AM 40.9°F4.9°C 35.2°F1.8°C 80% 1.2 mph E1.9 kmh E 3.5 mph5.6 kmh 30.03 in1016.9 mb - 0.00 in0.0 mm 0.00 in0.0 mm
02:20 AM 41.3°F5.2°C 35.3°F1.8°C 79% Calm Calm 1.2 mph1.9 kmh 30.04 in1017.3 mb - 0.00 in0.0 mm 0.00 in0.0 mm
02:10 AM 41.7°F5.4°C 35.3°F1.8°C 78% 1.2 mph E1.9 kmh E 2.3 mph3.7 kmh 30.03 in1016.9 mb - 0.00 in0.0 mm 0.00 in0.0 mm
02:00 AM 42.1°F5.6°C 35.4°F1.9°C 77% 1.2 mph E1.9 kmh E 2.3 mph3.7 kmh 30.03 in1016.9 mb - 0.00 in0.0 mm 0.00 in0.0 mm
01:50 AM 42.4°F5.8°C 35.7°F2.1°C 77% 2.3 mph E3.7 kmh E 3.5 mph5.6 kmh 30.03 in1016.9 mb - 0.00 in0.0 mm 0.00 in0.0 mm
01:40 AM 42.6°F5.9°C 35.6°F2.0°C 76% 3.5 mph E5.6 kmh E 4.6 mph7.4 kmh 30.03 in1016.9 mb - 0.00 in0.0 mm 0.00 in0.0 mm
01:30 AM 42.9°F6.1°C 35.8°F2.1°C 76% 1.2 mph E1.9 kmh E 3.5 mph5.6 kmh 30.03 in1016.9 mb - 0.00 in0.0 mm 0.00 in0.0 mm
01:20 AM 43.0°F6.1°C 35.9°F2.2°C 76% 1.2 mph E1.9 kmh E 3.5 mph5.6 kmh 30.03 in1016.9 mb - 0.00 in0.0 mm 0.00 in0.0 mm
01:10 AM 43.0°F6.1°C 35.6°F2.0°C 75% 1.2 mph E1.9 kmh E 2.3 mph3.7 kmh 30.03 in1016.9 mb - 0.00 in0.0 mm 0.00 in0.0 mm
01:00 AM 43.1°F6.2°C 35.7°F2.1°C 75% 2.3 mph E3.7 kmh E 3.5 mph5.6 kmh 30.03 in1016.9 mb - 0.00 in0.0 mm 0.00 in0.0 mm
12:50 AM 43.1°F6.2°C 35.7°F2.1°C 75% 2.3 mph E3.7 kmh E 3.5 mph5.6 kmh 30.04 in1017.3 mb - 0.00 in0.0 mm 0.00 in0.0 mm
12:40 AM 43.2°F6.2°C 35.5°F1.9°C 74% 3.5 mph NE5.6 kmh NE 4.6 mph7.4 kmh 30.03 in1016.9 mb - 0.00 in0.0 mm 0.00 in0.0 mm
12:30 AM 43.3°F6.3°C 35.2°F1.8°C 73% 2.3 mph ENE3.7 kmh ENE 4.6 mph7.4 kmh 30.03 in1016.9 mb - 0.00 in0.0 mm 0.00 in0.0 mm
12:20 AM 43.3°F6.3°C 35.3°F1.8°C 73% 2.3 mph NNE3.7 kmh NNE 3.5 mph5.6 kmh 30.04 in1017.3 mb - 0.00 in0.0 mm 0.00 in0.0 mm
12:10 AM 43.4°F6.3°C 35.3°F1.8°C 73% 3.5 mph NE5.6 kmh NE 4.6 mph7.4 kmh 30.04 in1017.3 mb - 0.00 in0.0 mm 0.00 in0.0 mm
12:00 AM 43.5°F6.4°C 35.8°F2.1°C 74% 4.6 mph N7.4 kmh N 6.9 mph11.1 kmh 30.04 in1017.3 mb - 0.00 in0.0 mm 0.00 in0.0 mm